createdAt,value
2018-06-27T00:09:19.522Z,8.93
2018-06-27T00:11:48.660Z,10.27
2018-06-27T00:24:34.199Z,9.30
2018-06-27T00:41:05.115Z,10.83
2018-06-27T00:43:34.339Z,10.23
2018-06-27T00:46:03.133Z,9.43
2018-06-27T00:48:32.278Z,10.00
2018-06-27T00:51:01.444Z,10.40
2018-06-27T00:53:35.806Z,10.00
2018-06-27T00:56:05.050Z,10.53
2018-06-27T00:58:33.747Z,12.50
2018-06-27T01:01:02.952Z,11.33
2018-06-27T01:03:32.097Z,12.40
2018-06-27T01:06:01.396Z,11.57
2018-06-27T01:08:30.538Z,13.23
2018-06-27T01:10:59.735Z,11.77
2018-06-27T01:13:29.320Z,10.67
2018-06-27T01:18:32.648Z,11.10
2018-06-27T01:21:01.309Z,12.40
2018-06-27T01:23:36.855Z,12.53
2018-06-27T01:26:06.005Z,12.73
2018-06-27T01:28:35.151Z,11.20
2018-06-27T01:31:04.374Z,12.53
2018-06-27T01:33:33.680Z,12.37
2018-06-27T01:36:02.892Z,14.87
2018-06-27T01:38:32.035Z,12.77
2018-06-27T01:41:01.235Z,12.87
2018-06-27T01:43:30.371Z,13.50
2018-06-27T01:45:59.526Z,12.90
2018-06-27T01:48:28.707Z,12.63
2018-06-27T01:50:57.855Z,12.30
2018-06-27T01:53:27.009Z,12.30
2018-06-27T01:55:56.240Z,11.73
2018-06-27T01:58:25.388Z,12.30
2018-06-27T02:00:54.570Z,12.53
2018-06-27T02:03:23.720Z,11.97
2018-06-27T02:05:52.957Z,11.70
2018-06-27T02:08:22.115Z,11.60
2018-06-27T02:10:51.306Z,12.20
2018-06-27T02:13:20.456Z,14.47
2018-06-27T02:15:50.048Z,12.87
2018-06-27T02:18:19.275Z,12.57
2018-06-27T02:20:48.422Z,15.33
2018-06-27T02:23:17.607Z,13.93
2018-06-27T02:25:46.768Z,13.07
2018-06-27T02:28:18.878Z,12.57
2018-06-27T02:30:48.025Z,12.90
2018-06-27T02:33:22.426Z,11.97
2018-06-27T02:35:51.581Z,12.77
2018-06-27T02:38:21.052Z,12.93
2018-06-27T02:40:50.217Z,12.57
2018-06-27T02:43:19.633Z,13.10
2018-06-27T02:45:49.096Z,13.07
2018-06-27T02:48:18.245Z,14.10
2018-06-27T02:50:47.515Z,12.87
2018-06-27T02:53:16.714Z,13.07
2018-06-27T02:55:46.089Z,12.90
2018-06-27T02:58:15.418Z,14.17
2018-06-27T03:00:44.668Z,13.60
2018-06-27T03:03:13.891Z,13.50
2018-06-27T03:05:43.193Z,13.03
2018-06-27T03:08:12.370Z,12.43
2018-06-27T03:10:43.862Z,13.43
2018-06-27T03:13:13.049Z,12.70
2018-06-27T03:15:50.584Z,14.73
2018-06-27T03:18:19.805Z,14.17
2018-06-27T03:20:49.060Z,14.40
2018-06-27T03:23:18.252Z,15.17
2018-06-27T03:25:52.567Z,13.20
2018-06-27T03:28:24.399Z,14.70
2018-06-27T03:30:53.824Z,12.70
2018-06-27T03:33:22.983Z,13.27
2018-06-27T03:35:52.120Z,15.83
2018-06-27T03:38:21.687Z,14.57
2018-06-27T03:40:51.503Z,16.10
2018-06-27T03:43:20.673Z,15.70
2018-06-27T03:45:49.846Z,17.00
2018-06-27T03:48:19.004Z,16.20
2018-06-27T03:50:48.298Z,16.23
2018-06-27T03:53:17.511Z,15.33
2018-06-27T03:55:46.654Z,15.03
2018-06-27T03:58:15.884Z,15.53
2018-06-27T04:00:45.047Z,13.70
2018-06-27T04:03:14.356Z,13.80
2018-06-27T04:05:43.731Z,13.53
2018-06-27T04:08:12.867Z,13.07
2018-06-27T04:10:42.026Z,12.17
2018-06-27T04:13:11.392Z,12.37
2018-06-27T04:15:40.564Z,12.27
2018-06-27T04:18:09.700Z,10.93
2018-06-27T04:20:39.118Z,10.10
2018-06-27T04:23:08.251Z,10.33
2018-06-27T04:25:37.404Z,10.00
2018-06-27T04:28:07.061Z,9.70
2018-06-27T04:30:36.878Z,10.07
2018-06-27T04:33:06.056Z,8.40
2018-06-27T04:35:35.232Z,8.60
2018-06-27T04:38:04.392Z,9.93
2018-06-27T04:40:33.658Z,9.50
2018-06-27T04:43:02.820Z,9.87
2018-06-27T04:45:33.049Z,10.00
2018-06-27T04:48:21.095Z,9.60
2018-06-27T04:50:50.728Z,9.47
2018-06-27T04:53:20.014Z,10.00
2018-06-27T04:55:49.186Z,10.33
2018-06-27T04:58:18.362Z,9.00
2018-06-27T05:00:47.513Z,8.90
2018-06-27T05:03:16.724Z,10.17
2018-06-27T05:05:45.889Z,8.43
2018-06-27T05:08:15.415Z,8.20
2018-06-27T05:10:44.585Z,8.50
2018-06-27T05:13:13.736Z,10.00
2018-06-27T05:15:42.926Z,9.70
2018-06-27T05:18:12.088Z,9.20
2018-06-27T05:20:41.277Z,8.13
2018-06-27T05:23:10.416Z,9.10
2018-06-27T05:25:39.628Z,8.47
2018-06-27T05:28:09.216Z,7.50
2018-06-27T05:30:38.386Z,8.40
2018-06-27T05:33:07.595Z,7.50
2018-06-27T05:35:36.782Z,8.50
2018-06-27T05:38:06.047Z,7.40
2018-06-27T05:40:35.239Z,8.17
2018-06-27T05:43:04.371Z,8.10
2018-06-27T05:45:33.530Z,8.03
2018-06-27T05:48:02.710Z,9.57
2018-06-27T05:50:31.828Z,8.20
2018-06-27T05:53:00.944Z,7.20
2018-06-27T05:55:30.603Z,7.57
2018-06-27T05:57:59.839Z,7.10
2018-06-27T06:00:29.064Z,7.70
2018-06-27T06:02:58.259Z,8.23
2018-06-27T06:05:27.769Z,9.43
2018-06-27T06:07:56.913Z,9.90
2018-06-27T06:10:26.107Z,10.17
2018-06-27T06:12:55.227Z,10.20
2018-06-27T06:15:24.421Z,11.30
2018-06-27T06:17:53.799Z,11.77
2018-06-27T06:20:22.971Z,11.53
2018-06-27T06:22:52.116Z,11.70
2018-06-27T06:25:21.295Z,10.33
2018-06-27T06:27:50.024Z,12.10
2018-06-27T06:30:19.748Z,13.27
2018-06-27T06:33:01.252Z,11.90
2018-06-27T06:38:20.864Z,13.50
2018-06-27T06:40:50.120Z,13.63
2018-06-27T06:43:19.203Z,13.00
2018-06-27T06:45:48.399Z,16.03
2018-06-27T06:48:17.872Z,17.10
2018-06-27T06:50:46.616Z,14.63
2018-06-27T06:53:15.767Z,16.30
2018-06-27T06:55:44.926Z,15.47
2018-06-27T06:58:14.363Z,16.57
2018-06-27T07:00:43.083Z,18.90
2018-06-27T07:03:12.315Z,17.67
2018-06-27T07:05:41.482Z,20.70
2018-06-27T07:08:10.628Z,17.80
2018-06-27T07:10:39.795Z,16.57
2018-06-27T07:13:08.947Z,17.10
2018-06-27T07:15:42.279Z,16.17
2018-06-27T07:18:11.419Z,17.73
2018-06-27T07:20:40.603Z,16.30
2018-06-27T07:23:09.952Z,15.33
2018-06-27T07:25:39.140Z,16.07
2018-06-27T07:28:08.517Z,15.90
2018-06-27T07:30:38.104Z,17.10
2018-06-27T07:33:07.270Z,14.40
2018-06-27T07:35:36.475Z,17.00
2018-06-27T07:38:06.040Z,15.30
2018-06-27T07:40:35.176Z,14.37
2018-06-27T07:43:04.335Z,14.97
2018-06-27T07:45:33.945Z,13.30
2018-06-27T07:48:03.079Z,13.57
2018-06-27T07:50:32.219Z,15.23
2018-06-27T07:53:01.383Z,13.90
2018-06-27T07:55:31.885Z,11.93
2018-06-27T07:58:01.184Z,13.43
2018-06-27T08:00:30.411Z,12.13
2018-06-27T08:02:59.595Z,12.07
2018-06-27T08:05:28.923Z,13.33
2018-06-27T08:07:58.052Z,12.03
2018-06-27T08:10:27.216Z,13.13
2018-06-27T08:12:56.528Z,13.17
2018-06-27T08:15:25.675Z,14.30
2018-06-27T08:17:54.974Z,13.40
2018-06-27T08:20:24.048Z,14.80
2018-06-27T08:22:53.558Z,14.60
2018-06-27T08:25:22.741Z,13.57
2018-06-27T08:27:51.867Z,15.20
2018-06-27T08:30:21.083Z,14.83
2018-06-27T08:32:50.250Z,13.93
2018-06-27T08:35:19.415Z,15.03
2018-06-27T08:37:48.648Z,13.20
2018-06-27T08:40:17.916Z,13.07
2018-06-27T08:42:47.143Z,12.70
2018-06-27T08:45:16.294Z,13.73
2018-06-27T08:47:45.496Z,13.57
2018-06-27T08:50:14.742Z,13.30
2018-06-27T08:52:43.880Z,14.33
2018-06-27T08:55:13.068Z,13.23
2018-06-27T08:57:42.305Z,13.57
2018-06-27T09:00:11.682Z,13.43
2018-06-27T09:02:41.000Z,14.43
2018-06-27T09:05:10.185Z,12.90
2018-06-27T09:07:39.824Z,12.13
2018-06-27T09:10:08.996Z,13.00
2018-06-27T09:12:38.133Z,14.70
2018-06-27T09:15:07.327Z,15.63
2018-06-27T09:17:36.005Z,15.47
2018-06-27T09:20:05.648Z,15.40
2018-06-27T09:22:35.087Z,15.10
2018-06-27T09:25:04.345Z,14.97
2018-06-27T09:27:33.497Z,15.63
2018-06-27T09:30:03.095Z,15.53
2018-06-27T09:32:32.246Z,15.93
2018-06-27T09:35:03.740Z,15.50
2018-06-27T09:44:32.923Z,16.57
2018-06-27T09:50:07.090Z,15.33
2018-06-27T09:53:19.778Z,17.33
2018-06-27T09:59:10.967Z,15.37
2018-06-27T10:19:10.861Z,15.73
2018-06-27T10:21:39.941Z,15.57
2018-06-27T10:24:09.082Z,15.43
2018-06-27T10:26:38.648Z,15.83
2018-06-27T10:29:08.449Z,16.63
2018-06-27T10:31:37.934Z,15.30
2018-06-27T10:34:12.608Z,16.70
2018-06-27T10:36:45.181Z,14.47
2018-06-27T10:39:16.059Z,16.67
2018-06-27T10:42:52.252Z,16.03
2018-06-27T10:45:29.679Z,13.53
2018-06-27T10:48:02.149Z,15.07
2018-06-27T10:50:39.633Z,16.47
2018-06-27T10:53:08.887Z,15.30
2018-06-27T10:55:38.057Z,13.47
2018-06-27T10:58:07.171Z,12.83
2018-06-27T11:00:36.271Z,13.20
2018-06-27T11:03:05.667Z,12.33
2018-06-27T11:05:34.856Z,14.20
2018-06-27T11:08:04.485Z,13.00
2018-06-27T11:10:33.645Z,13.30
2018-06-27T11:13:02.766Z,14.00
2018-06-27T11:15:32.125Z,13.23
2018-06-27T11:18:01.376Z,13.30
2018-06-27T11:20:30.575Z,14.27
2018-06-27T11:22:59.698Z,13.37
2018-06-27T11:25:28.849Z,11.97
2018-06-27T11:27:58.029Z,13.73
2018-06-27T11:30:27.164Z,12.80
2018-06-27T11:32:56.276Z,11.90
2018-06-27T11:35:25.428Z,12.87
2018-06-27T11:37:54.533Z,10.60
2018-06-27T11:40:23.654Z,11.27
2018-06-27T11:42:52.752Z,11.80
2018-06-27T11:45:21.891Z,11.63
2018-06-27T11:47:51.021Z,11.17
2018-06-27T11:50:20.186Z,11.13
2018-06-27T11:52:49.315Z,11.93
2018-06-27T11:55:18.510Z,9.87
2018-06-27T11:57:47.622Z,12.17
2018-06-27T12:00:16.743Z,9.87
2018-06-27T12:02:45.899Z,10.00
2018-06-27T12:05:15.020Z,10.03
2018-06-27T12:07:44.157Z,10.60
2018-06-27T12:10:13.260Z,9.33
2018-06-27T12:12:42.546Z,8.43
2018-06-27T12:15:11.751Z,9.80
2018-06-27T12:17:40.883Z,8.40
2018-06-27T12:20:10.044Z,8.20
2018-06-27T12:22:39.142Z,8.30
2018-06-27T12:25:08.282Z,9.30
2018-06-27T12:27:43.801Z,9.83
2018-06-27T12:30:20.128Z,9.07
2018-06-27T12:32:49.655Z,9.50
2018-06-27T12:35:19.557Z,7.70
2018-06-27T12:37:48.671Z,8.40
2018-06-27T12:40:18.129Z,9.40
2018-06-27T12:42:47.240Z,7.80
2018-06-27T12:45:16.707Z,7.97
2018-06-27T12:47:45.797Z,8.50
2018-06-27T12:50:15.022Z,7.73
2018-06-27T12:52:44.194Z,8.30
2018-06-27T12:55:14.066Z,7.40
2018-06-27T12:57:43.327Z,8.20
2018-06-27T13:00:12.519Z,7.50
2018-06-27T13:02:41.629Z,7.60
2018-06-27T13:05:11.153Z,7.43
2018-06-27T13:07:40.260Z,7.90
2018-06-27T13:10:09.881Z,7.60
2018-06-27T13:12:39.121Z,7.03
2018-06-27T13:15:08.370Z,7.40
2018-06-27T13:17:37.475Z,6.17
2018-06-27T13:20:06.910Z,5.67
2018-06-27T13:22:36.095Z,6.77
2018-06-27T13:25:05.481Z,7.37
2018-06-27T13:27:34.652Z,7.10
2018-06-27T13:30:04.448Z,6.00
2018-06-27T13:32:39.108Z,5.73
2018-06-27T13:35:08.441Z,5.70
2018-06-27T13:50:57.022Z,5.63
2018-06-27T13:53:26.134Z,5.17
2018-06-27T13:55:55.292Z,6.00
2018-06-27T13:58:25.105Z,6.07
2018-06-27T14:00:54.279Z,6.63
2018-06-27T14:03:23.442Z,5.20
2018-06-27T14:05:52.723Z,4.90
2018-06-27T14:08:22.411Z,4.70
2018-06-27T14:10:51.086Z,5.13
2018-06-27T14:13:20.922Z,5.30
2018-06-27T14:15:50.120Z,4.33
2018-06-27T14:18:19.409Z,5.60
2018-06-27T14:20:48.547Z,4.40
2018-06-27T14:23:17.676Z,4.47
2018-06-27T14:25:46.958Z,3.60
2018-06-27T14:28:16.045Z,4.20
2018-06-27T14:30:45.168Z,4.50
2018-06-27T14:33:14.285Z,4.23
2018-06-27T14:35:43.514Z,3.60
2018-06-27T14:38:12.674Z,4.00
2018-06-27T14:40:41.813Z,4.00
2018-06-27T14:43:10.908Z,2.97
2018-06-27T14:45:40.117Z,4.70
2018-06-27T14:48:09.309Z,4.10
2018-06-27T14:50:38.774Z,3.70
2018-06-27T14:53:08.283Z,3.40
2018-06-27T14:55:37.786Z,3.60
2018-06-27T14:58:07.564Z,3.30
2018-06-27T15:00:36.716Z,3.13
2018-06-27T15:03:05.918Z,3.37
2018-06-27T15:05:35.118Z,3.07
2018-06-27T15:08:04.263Z,2.50
2018-06-27T15:10:33.424Z,3.00
2018-06-27T15:13:02.587Z,3.07
2018-06-27T15:15:31.783Z,3.87
2018-06-27T15:18:01.108Z,3.93
2018-06-27T15:20:30.368Z,3.60
2018-06-27T15:22:59.533Z,3.27
2018-06-27T15:25:28.698Z,4.03
2018-06-27T15:28:09.159Z,3.40
2018-06-27T15:30:38.744Z,3.60
2018-06-27T15:33:08.055Z,3.13
2018-06-27T15:35:37.220Z,3.43
2018-06-27T15:38:06.566Z,3.37
2018-06-27T15:40:38.633Z,3.50
2018-06-27T15:43:08.932Z,3.93
2018-06-27T15:45:38.653Z,4.10
2018-06-27T15:48:08.659Z,3.83
2018-06-27T15:50:37.935Z,3.13
2018-06-27T15:53:07.795Z,3.60
2018-06-27T15:55:37.778Z,3.30
2018-06-27T15:58:08.072Z,3.97
2018-06-27T16:00:37.429Z,4.00
2018-06-27T16:03:06.685Z,3.17
2018-06-27T16:05:36.791Z,4.10
2018-06-27T16:08:07.384Z,3.20
2018-06-27T16:10:36.620Z,3.20
2018-06-27T16:13:06.016Z,3.60
2018-06-27T16:15:35.177Z,3.40
2018-06-27T16:18:04.619Z,4.00
2018-06-27T16:20:33.747Z,3.67
2018-06-27T16:23:02.831Z,3.70
2018-06-27T16:25:32.108Z,3.20
2018-06-27T16:31:17.305Z,3.50
2018-06-27T16:33:46.489Z,3.50
2018-06-27T16:36:23.049Z,3.73
2018-06-27T16:38:52.420Z,3.63
2018-06-27T16:41:21.587Z,4.00
2018-06-27T16:43:50.873Z,4.30
2018-06-27T16:46:20.073Z,3.43
2018-06-27T16:48:49.205Z,3.33
2018-06-27T16:51:18.450Z,3.97
2018-06-27T16:53:48.033Z,3.20
2018-06-27T16:56:17.188Z,4.00
2018-06-27T16:58:46.580Z,3.80
2018-06-27T17:01:15.838Z,3.80
2018-06-27T17:03:44.559Z,3.53
2018-06-27T17:06:15.633Z,4.50
2018-06-27T17:08:44.819Z,4.60
2018-06-27T17:11:13.970Z,4.07
2018-06-27T17:13:43.394Z,3.80
2018-06-27T17:16:12.716Z,3.80
2018-06-27T17:19:21.079Z,3.97
2018-06-27T17:29:11.386Z,3.30
2018-06-27T17:31:41.569Z,3.63
2018-06-27T17:34:10.743Z,3.20
2018-06-27T17:36:39.920Z,3.70
2018-06-27T17:39:10.698Z,3.53
2018-06-27T17:41:40.483Z,3.47
2018-06-27T17:44:09.691Z,3.37
2018-06-27T17:46:38.859Z,3.73
2018-06-27T17:49:09.668Z,3.43
2018-06-27T17:51:40.832Z,3.80
2018-06-27T17:54:10.102Z,4.03
2018-06-27T17:56:40.357Z,3.70
2018-06-27T17:59:09.559Z,4.00
2018-06-27T18:01:38.784Z,4.20
2018-06-27T18:04:08.486Z,4.63
2018-06-27T18:06:37.665Z,4.97
2018-06-27T18:09:09.024Z,4.20
2018-06-27T18:11:43.814Z,5.03
2018-06-27T18:14:13.191Z,4.53
2018-06-27T18:16:42.351Z,5.60
2018-06-27T18:19:11.521Z,4.90
2018-06-27T18:21:41.234Z,4.60
2018-06-27T18:24:10.400Z,5.00
2018-06-27T18:26:39.535Z,5.20
2018-06-27T18:29:08.162Z,6.13
2018-06-27T18:31:45.359Z,5.17
2018-06-27T18:34:20.316Z,5.53
2018-06-27T18:37:04.459Z,5.30
2018-06-27T18:39:38.175Z,5.63
2018-06-27T18:42:11.933Z,5.13
2018-06-27T18:44:43.268Z,5.57
2018-06-27T18:47:13.764Z,5.00
2018-06-27T18:49:45.551Z,6.47
2018-06-27T18:52:21.837Z,6.50
2018-06-27T18:54:57.338Z,6.10
2018-06-27T18:57:33.518Z,6.50
2018-06-27T19:00:10.596Z,5.93
2018-06-27T19:02:51.225Z,6.30
2018-06-27T19:05:42.892Z,5.60
2018-06-27T19:08:14.280Z,6.10
2018-06-27T19:10:44.845Z,7.50
2018-06-27T19:13:16.606Z,6.73
2018-06-27T19:15:48.004Z,6.87
2018-06-27T19:18:22.424Z,7.10
2018-06-27T19:21:18.027Z,6.60
2018-06-27T19:23:58.043Z,6.47
2018-06-27T19:26:31.295Z,6.37
2018-06-27T19:29:04.391Z,6.30
2018-06-27T19:31:36.495Z,6.83
2018-06-27T19:34:05.979Z,6.57
2018-06-27T19:36:38.436Z,7.50
2018-06-27T19:39:10.254Z,7.70
2018-06-27T19:41:42.148Z,7.00
2018-06-27T19:44:11.452Z,7.63
2018-06-27T19:50:20.445Z,6.70
2018-06-27T19:52:53.062Z,7.17
2018-06-27T19:55:37.972Z,7.50
2018-06-27T19:58:09.729Z,7.10
2018-06-27T20:00:38.920Z,8.43
2018-06-27T20:03:12.638Z,7.03
2018-06-27T20:05:48.728Z,7.20
2018-06-27T20:08:21.877Z,6.97
2018-06-27T20:10:52.835Z,6.70
2018-06-27T20:13:22.009Z,7.10
2018-06-27T20:15:53.521Z,6.80
2018-06-27T20:18:43.995Z,6.70
2018-06-27T20:21:15.631Z,9.53
2018-06-27T20:23:44.951Z,6.50
2018-06-27T20:26:15.437Z,7.30
2018-06-27T20:28:47.140Z,7.37
2018-06-27T20:31:18.081Z,7.33
2018-06-27T20:33:49.942Z,7.03
2018-06-27T20:36:20.800Z,7.33
2018-06-27T20:38:50.747Z,6.80
2018-06-27T20:41:21.494Z,7.23
2018-06-27T20:43:50.759Z,7.37
2018-06-27T20:46:25.601Z,6.50
2018-06-27T20:48:58.055Z,7.00
2018-06-27T20:51:30.282Z,7.80
2018-06-27T20:54:02.598Z,7.20
2018-06-27T20:56:32.312Z,7.50
2018-06-27T20:59:01.443Z,7.40
2018-06-27T21:01:31.694Z,7.20
2018-06-27T21:04:02.426Z,8.13
2018-06-27T21:06:33.223Z,8.53
2018-06-27T21:09:02.460Z,8.07
2018-06-27T21:11:34.582Z,7.43
2018-06-27T21:14:04.815Z,7.77
2018-06-27T21:16:34.210Z,7.70
2018-06-27T21:19:03.504Z,9.03
2018-06-27T21:22:01.469Z,8.10
